createdAt,value
2023-01-12T00:00:01.584Z,219.0
2023-01-12T00:05:01.911Z,226.7
2023-01-12T00:10:01.611Z,224.2
2023-01-12T00:20:01.881Z,206.9
2023-01-12T00:25:01.929Z,204.4
2023-01-12T00:30:01.579Z,193.8
2023-01-12T00:35:01.642Z,176.3
2023-01-12T00:40:03.749Z,157.9
2023-01-12T00:45:01.704Z,161.7
2023-01-12T00:50:01.596Z,177.6
2023-01-12T00:55:01.661Z,177.0
2023-01-12T01:00:01.587Z,179.1
2023-01-12T01:05:02.495Z,196.0
2023-01-12T01:15:01.676Z,198.6
2023-01-12T01:20:01.610Z,162.1
2023-01-12T01:25:02.292Z,157.2
2023-01-12T01:35:01.766Z,156.3
2023-01-12T01:50:01.971Z,177.2
2023-01-12T02:10:01.675Z,172.8
2023-01-12T02:15:01.843Z,173.0
2023-01-12T02:20:01.616Z,164.4
2023-01-12T02:50:02.492Z,167.2
2023-01-12T02:55:01.732Z,202.3
2023-01-12T03:05:06.673Z,202.2
2023-01-12T03:10:01.874Z,188.2
2023-01-12T03:30:02.513Z,299.6
2023-01-12T03:35:01.455Z,238.0
2023-01-12T03:40:01.358Z,201.9
2023-01-12T03:45:01.491Z,210.9
2023-01-12T03:55:01.744Z,214.1
2023-01-12T04:00:01.342Z,213.7
2023-01-12T04:05:01.479Z,243.8
2023-01-12T04:10:01.707Z,227.8
2023-01-12T04:15:01.396Z,243.8
2023-01-12T04:20:01.652Z,234.1
2023-01-12T04:25:02.282Z,252.2
2023-01-12T04:30:01.726Z,250.0
2023-01-12T04:35:06.540Z,272.9
2023-01-12T04:40:06.521Z,253.5
2023-01-12T04:50:05.802Z,269.7
2023-01-12T04:55:06.457Z,268.2
2023-01-12T05:00:12.853Z,276.0
2023-01-12T05:05:01.808Z,258.2
2023-01-12T05:15:01.755Z,237.0
2023-01-12T05:20:01.695Z,244.2
2023-01-12T05:25:01.495Z,220.4
2023-01-12T05:35:01.475Z,214.8
2023-01-12T05:40:01.415Z,198.8
2023-01-12T05:50:01.862Z,201.4
2023-01-12T05:55:01.391Z,229.7
2023-01-12T06:00:01.464Z,237.1
2023-01-12T06:05:01.770Z,246.5
2023-01-12T06:10:01.874Z,275.8
2023-01-12T06:15:01.474Z,277.8
2023-01-12T06:20:01.400Z,288.1
2023-01-12T06:25:01.437Z,288.3
2023-01-12T06:35:19.986Z,236.4
2023-01-12T06:40:01.695Z,225.5
2023-01-12T06:50:01.653Z,208.0
2023-01-12T06:55:02.175Z,248.7
2023-01-12T07:10:01.670Z,210.9
2023-01-12T07:15:01.569Z,194.2
2023-01-12T07:20:01.303Z,138.9
2023-01-12T07:25:01.388Z,134.2
2023-01-12T07:30:01.628Z,129.8
2023-01-12T07:35:01.554Z,124.0
2023-01-12T07:50:01.469Z,136.5
2023-01-12T07:55:01.539Z,129.0
2023-01-12T08:00:11.380Z,130.4
2023-01-12T08:05:02.389Z,130.4
2023-01-12T08:15:01.482Z,132.4
2023-01-12T08:20:06.687Z,154.4
2023-01-12T08:25:06.556Z,164.0
2023-01-12T08:30:01.394Z,161.2
2023-01-12T08:35:06.868Z,170.1
2023-01-12T08:40:01.424Z,158.9
2023-01-12T08:50:02.522Z,167.3
2023-01-12T09:00:02.568Z,175.6
2023-01-12T09:10:01.455Z,169.0
2023-01-12T09:15:01.573Z,146.6
2023-01-12T09:20:01.403Z,141.4
2023-01-12T09:25:01.455Z,129.8
2023-01-12T09:30:01.317Z,127.7
2023-01-12T09:35:01.523Z,156.5
2023-01-12T09:50:11.109Z,123.5
2023-01-12T09:55:02.534Z,116.4
2023-01-12T10:05:07.046Z,78.3
2023-01-12T10:15:01.719Z,91.4
2023-01-12T10:20:01.379Z,96.8
2023-01-12T10:40:02.028Z,113.4
2023-01-12T10:50:01.791Z,184.5
2023-01-12T11:10:01.516Z,148.6
2023-01-12T11:30:02.140Z,309.4
2023-01-12T11:35:05.276Z,202.4
2023-01-12T11:45:02.302Z,166.7
2023-01-12T12:10:01.965Z,75.6
2023-01-12T12:50:01.585Z,118.0
2023-01-12T12:55:01.888Z,103.8
2023-01-12T13:00:01.651Z,110.7
2023-01-12T13:05:05.643Z,127.3
2023-01-12T13:10:06.912Z,133.0
2023-01-12T13:15:01.461Z,151.4
2023-01-12T13:20:25.863Z,183.6
2023-01-12T13:40:01.391Z,246.4
2023-01-12T13:45:01.384Z,238.0
2023-01-12T13:50:01.330Z,226.6
2023-01-12T13:55:01.649Z,217.3
2023-01-12T14:00:01.440Z,215.4
2023-01-12T14:05:01.328Z,204.5
2023-01-12T14:35:03.093Z,175.9
2023-01-12T14:40:02.203Z,166.2
2023-01-12T14:50:01.809Z,147.5
2023-01-12T15:10:02.374Z,81.8
2023-01-12T15:30:01.277Z,95.6
2023-01-12T15:35:01.256Z,95.1
2023-01-12T15:40:01.791Z,91.0
2023-01-12T15:45:01.395Z,96.5
2023-01-12T15:50:01.616Z,98.0
2023-01-12T15:55:01.823Z,98.6
2023-01-12T16:00:01.448Z,101.3
2023-01-12T16:05:01.499Z,117.9
2023-01-12T16:10:01.632Z,137.6
2023-01-12T16:20:01.541Z,179.0
2023-01-12T16:25:01.749Z,203.5
2023-01-12T16:35:01.226Z,211.2
2023-01-12T16:40:01.660Z,203.7
2023-01-12T16:55:01.231Z,158.6
2023-01-12T17:00:01.904Z,140.8
2023-01-12T17:05:01.827Z,129.2
2023-01-12T17:10:01.837Z,116.3
2023-01-12T17:15:01.874Z,108.2
2023-01-12T17:20:02.955Z,106.8
2023-01-12T17:25:01.604Z,104.4
2023-01-12T17:30:01.378Z,105.0
2023-01-12T17:35:01.547Z,136.4
2023-01-12T17:40:01.119Z,130.3
2023-01-12T17:45:01.251Z,125.2
2023-01-12T17:50:01.366Z,119.8
2023-01-12T17:55:01.555Z,113.6
2023-01-12T18:00:01.216Z,79.3
2023-01-12T18:05:01.234Z,81.5
2023-01-12T18:10:01.306Z,85.1
2023-01-12T18:15:01.254Z,88.1
2023-01-12T18:20:01.126Z,87.9
2023-01-12T18:25:02.743Z,87.4
2023-01-12T18:30:01.159Z,85.8
2023-01-12T18:35:13.085Z,85.2
2023-01-12T18:40:01.119Z,88.0
2023-01-12T18:45:01.223Z,97.4
2023-01-12T18:50:01.144Z,109.0
2023-01-12T18:55:07.681Z,124.6
2023-01-12T19:00:01.556Z,139.8
2023-01-12T19:10:01.139Z,157.6
2023-01-12T19:15:01.741Z,162.1
2023-01-12T19:20:02.341Z,171.8
2023-01-12T19:25:01.616Z,180.8
2023-01-12T19:30:01.493Z,196.1
2023-01-12T19:35:15.275Z,220.0
2023-01-12T19:40:01.778Z,248.0
2023-01-12T19:45:01.661Z,270.7
2023-01-12T19:50:01.229Z,286.1
2023-01-12T19:55:01.411Z,283.5
2023-01-12T20:00:01.153Z,274.8
2023-01-12T20:05:01.610Z,260.4
2023-01-12T20:10:01.272Z,239.9
2023-01-12T20:15:01.262Z,250.6
2023-01-12T20:20:01.325Z,254.3
2023-01-12T20:25:02.132Z,256.6
2023-01-12T20:30:02.208Z,260.1
2023-01-12T20:35:01.184Z,264.6
2023-01-12T20:40:01.092Z,252.3
2023-01-12T20:45:01.187Z,239.4
2023-01-12T20:50:01.170Z,227.3
2023-01-12T20:55:01.303Z,207.0
2023-01-12T21:00:01.091Z,228.4
2023-01-12T21:05:01.230Z,206.9
2023-01-12T21:10:01.413Z,201.0
2023-01-12T21:15:01.564Z,195.8
2023-01-12T21:20:01.217Z,189.8
2023-01-12T21:25:08.226Z,141.5
2023-01-12T21:35:01.263Z,130.4
2023-01-12T21:40:06.242Z,126.8
2023-01-12T21:50:01.090Z,109.6
2023-01-12T22:00:01.185Z,84.3
2023-01-12T22:05:01.336Z,72.2
2023-01-12T22:10:01.195Z,72.2
2023-01-12T22:15:01.275Z,71.2
2023-01-12T22:20:01.567Z,71.8
2023-01-12T22:25:01.340Z,77.5
2023-01-12T22:30:01.175Z,83.7
2023-01-12T22:35:02.593Z,89.2
2023-01-12T22:40:02.277Z,87.8
2023-01-12T22:45:01.602Z,87.8
2023-01-12T22:50:01.568Z,80.4
2023-01-12T22:55:01.314Z,100.2
2023-01-12T23:00:01.255Z,120.6
2023-01-12T23:05:01.296Z,147.7
2023-01-12T23:10:06.224Z,171.5
2023-01-12T23:15:01.300Z,207.6
2023-01-12T23:20:01.063Z,229.6
2023-01-12T23:25:01.415Z,260.6
2023-01-12T23:30:01.103Z,258.4
2023-01-12T23:35:01.239Z,254.0
2023-01-12T23:40:01.139Z,282.2
2023-01-12T23:45:01.280Z,284.6
2023-01-12T23:50:01.207Z,287.8
2023-01-12T23:55:01.274Z,320.9
